Time;durP1;ratioP1;P1;durP2;ratioP2;P2;SDS_P1;SDS_P2;PMS_P1;PMS_P2;Temp;Humidity;BMP_temperature;BMP_pressure;BME280_temperature;BME280_humidity;BME280_pressure;Samples;Min_cycle;Max_cycle;Signal;HPM_P1;HPM_P2
2023/07/28 00:01:47;;;;;;;;;;;;;;;25.93;28.70;99552.59;6152714;23;19921;-65
2023/07/28 00:04:12;;;;;;;;;;;;;;;25.89;28.88;99547.72;6153386;23;20358;-65
2023/07/28 00:06:38;;;;;;;;;;;;;;;25.84;28.97;99550.63;6152528;23;19908;-65
2023/07/28 00:09:03;;;;;;;;;;;;;;;25.80;29.10;99555.13;6153753;23;19936;-64
2023/07/28 00:11:28;;;;;;;;;;;;;;;25.81;29.31;99556.75;6153201;23;19909;-64
2023/07/28 00:13:53;;;;;;;;;;;;;;;25.79;29.37;99558.19;6152302;23;20008;-63
2023/07/28 00:16:19;;;;;;;;;;;;;;;25.82;29.43;99563.06;6154269;23;20333;-62
2023/07/28 00:18:44;;;;;;;;;;;;;;;25.77;29.30;99553.00;6152340;23;20345;-63
2023/07/28 00:21:09;;;;;;;;;;;;;;;25.75;29.75;99557.22;6153726;23;19912;-63
2023/07/28 00:23:35;;;;;;;;;;;;;;;25.66;30.11;99555.22;6153162;23;19988;-65
2023/07/28 00:26:00;;;;;;;;;;;;;;;25.62;29.55;99556.19;6153352;23;20341;-65
2023/07/28 00:28:25;;;;;;;;;;;;;;;25.62;29.70;99558.94;6154456;23;19909;-65
2023/07/28 00:30:51;;;;;;;;;;;;;;;25.56;30.52;99560.22;6151786;23;20205;-66
2023/07/28 00:33:17;;;;;;;;;;;;;;;25.49;29.64;99552.41;6153960;23;19908;-66
2023/07/28 00:35:42;;;;;;;;;;;;;;;25.48;30.83;99559.03;6153006;23;19912;-66
2023/07/28 00:38:08;;;;;;;;;;;;;;;25.45;30.55;99560.47;6154354;23;19913;-67
2023/07/28 00:40:34;;;;;;;;;;;;;;;25.49;30.40;99555.16;6156403;23;19963;-67
2023/07/28 00:43:00;;;;;;;;;;;;;;;25.52;30.06;99554.53;6154365;23;19992;-67
2023/07/28 00:45:25;;;;;;;;;;;;;;;25.54;30.22;99559.69;6155527;23;19987;-68
2023/07/28 00:47:51;;;;;;;;;;;;;;;25.57;29.99;99553.56;6155731;23;20350;-68
2023/07/28 00:50:18;;;;;;;;;;;;;;;25.53;30.59;99552.59;6154811;23;19909;-67
2023/07/28 00:52:43;;;;;;;;;;;;;;;25.52;30.22;99557.28;6156204;23;20299;-68
2023/07/28 00:55:09;;;;;;;;;;;;;;;25.52;30.07;99559.19;6153883;23;20186;-67
2023/07/28 00:57:34;;;;;;;;;;;;;;;25.48;30.47;99559.03;6130025;23;19909;-68
2023/07/28 01:00:00;;;;;;;;;;;;;;;25.47;31.23;99554.66;6155917;23;19919;-68
2023/07/28 01:02:25;;;;;;;;;;;;;;;25.44;31.17;99553.34;6154508;23;19948;-65
2023/07/28 01:04:51;;;;;;;;;;;;;;;25.50;30.88;99554.00;6156037;23;19908;-66
2023/07/28 01:07:42;;;;;;;;;;;;;;;25.47;30.95;99549.97;6153762;23;19956;-66
2023/07/28 01:10:26;;;;;;;;;;;;;;;25.50;30.51;99543.03;6110536;23;19999;-67
2023/07/28 01:12:51;;;;;;;;;;;;;;;25.50;30.85;99543.03;6155344;23;19983;-67
2023/07/28 01:15:17;;;;;;;;;;;;;;;25.46;30.18;99550.28;6155117;23;19932;-67
2023/07/28 01:17:42;;;;;;;;;;;;;;;25.43;30.79;99551.72;6154819;23;20359;-67
2023/07/28 01:20:07;;;;;;;;;;;;;;;25.38;31.13;99549.13;6154054;23;19935;-67
2023/07/28 01:22:50;;;;;;;;;;;;;;;25.37;31.01;99541.19;6155931;23;19909;-67
2023/07/28 01:25:32;;;;;;;;;;;;;;;25.35;30.76;99543.44;6155670;23;19991;-67
2023/07/28 01:27:58;;;;;;;;;;;;;;;25.29;31.00;99551.81;6155274;23;19936;-67
2023/07/28 01:30:25;;;;;;;;;;;;;;;25.28;30.63;99547.44;6156272;23;19909;-67
2023/07/28 01:32:53;;;;;;;;;;;;;;;25.25;31.32;99550.81;6154428;23;19963;-67
2023/07/28 01:35:18;;;;;;;;;;;;;;;25.27;30.69;99548.56;6155782;23;20342;-67
2023/07/28 01:37:45;;;;;;;;;;;;;;;25.25;30.82;99545.31;6153004;23;19909;-67
2023/07/28 01:40:10;;;;;;;;;;;;;;;25.27;30.85;99543.06;6155457;23;19924;-67
2023/07/28 01:42:35;;;;;;;;;;;;;;;25.29;30.57;99546.31;6156157;23;19908;-68
2023/07/28 01:45:01;;;;;;;;;;;;;;;25.28;31.17;99552.16;6154104;23;19908;-68
2023/07/28 01:47:26;;;;;;;;;;;;;;;25.26;30.89;99549.72;6153925;23;19912;-67
2023/07/28 01:49:51;;;;;;;;;;;;;;;25.21;31.22;99549.81;6154887;23;20336;-68
2023/07/28 01:52:17;;;;;;;;;;;;;;;25.17;31.01;99548.81;6155475;23;19915;-67
2023/07/28 01:54:42;;;;;;;;;;;;;;;25.14;31.71;99556.88;6155341;23;19919;-68
2023/07/28 01:57:07;;;;;;;;;;;;;;;25.13;31.58;99553.31;6154104;23;20227;-65
2023/07/28 01:59:33;;;;;;;;;;;;;;;25.12;31.25;99551.69;6128529;23;20005;-67
2023/07/28 02:01:58;;;;;;;;;;;;;;;25.12;31.79;99549.72;6154957;23;19932;-67
2023/07/28 02:04:24;;;;;;;;;;;;;;;25.10;31.56;99553.94;6154532;23;19909;-67
2023/07/28 02:06:49;;;;;;;;;;;;;;;25.11;31.85;99559.13;6155542;23;19909;-68
2023/07/28 02:09:14;;;;;;;;;;;;;;;25.15;31.08;99550.22;6153414;23;19916;-66
2023/07/28 02:11:39;;;;;;;;;;;;;;;25.15;31.72;99555.72;6155537;23;19930;-66
2023/07/28 02:14:05;;;;;;;;;;;;;;;25.17;31.21;99551.56;6155474;23;19908;-66
2023/07/28 02:16:32;;;;;;;;;;;;;;;25.15;30.96;99556.56;6153233;23;19908;-66
2023/07/28 02:18:57;;;;;;;;;;;;;;;25.16;31.62;99555.41;6155313;23;19912;-66
2023/07/28 02:21:22;;;;;;;;;;;;;;;25.14;31.06;99559.63;6154168;23;19947;-66
2023/07/28 02:23:49;;;;;;;;;;;;;;;25.16;31.88;99557.38;6155566;23;19995;-67
2023/07/28 02:26:15;;;;;;;;;;;;;;;25.14;31.34;99560.41;6154869;23;19971;-66
2023/07/28 02:28:40;;;;;;;;;;;;;;;25.20;31.26;99553.66;6153926;23;19909;-65
2023/07/28 02:31:05;;;;;;;;;;;;;;;25.25;31.40;99561.81;6154365;23;20015;-66
2023/07/28 02:33:35;;;;;;;;;;;;;;;25.25;31.85;99559.06;6153777;23;20044;-66
2023/07/28 02:36:00;;;;;;;;;;;;;;;25.23;31.77;99561.31;6155075;23;19915;-66
2023/07/28 02:38:25;;;;;;;;;;;;;;;25.19;31.60;99565.78;6155212;23;19912;-66
2023/07/28 02:40:51;;;;;;;;;;;;;;;25.16;32.25;99560.91;6153032;23;19919;-67
2023/07/28 02:43:16;;;;;;;;;;;;;;;25.17;32.11;99562.53;6154998;23;20270;-66
2023/07/28 02:45:42;;;;;;;;;;;;;;;25.18;32.20;99566.91;6153543;23;19908;-66
2023/07/28 02:48:07;;;;;;;;;;;;;;;25.15;31.68;99563.97;6154086;23;19909;-66
2023/07/28 02:50:33;;;;;;;;;;;;;;;25.16;32.28;99563.66;6154049;23;19991;-66
2023/07/28 02:52:58;;;;;;;;;;;;;;;25.22;31.77;99573.41;6154089;23;19987;-67
2023/07/28 02:55:23;;;;;;;;;;;;;;;25.24;32.43;99581.34;6128886;23;19916;-67
2023/07/28 02:57:48;;;;;;;;;;;;;;;25.20;32.26;99578.38;6153430;23;19909;-67
2023/07/28 03:00:14;;;;;;;;;;;;;;;25.20;31.72;99578.38;6154685;23;19916;-65
2023/07/28 03:02:39;;;;;;;;;;;;;;;25.19;32.60;99579.53;6153055;23;19959;-66
2023/07/28 03:05:04;;;;;;;;;;;;;;;25.16;31.92;99577.41;6152790;23;19908;-65
2023/07/28 03:07:30;;;;;;;;;;;;;;;25.14;32.44;99579.66;6154404;23;19909;-66
2023/07/28 03:09:55;;;;;;;;;;;;;;;24.86;32.34;99530.34;6126926;23;19916;-66
2023/07/28 03:12:21;;;;;;;;;;;;;;;25.24;32.33;99586.84;6127698;23;20336;-66
2023/07/28 03:14:46;;;;;;;;;;;;;;;25.25;32.51;99588.50;6155043;23;19963;-66
2023/07/28 03:17:11;;;;;;;;;;;;;;;25.23;32.76;99588.78;6153252;23;20341;-66
2023/07/28 03:19:37;;;;;;;;;;;;;;;25.29;32.55;99586.72;6104097;23;19912;-66
2023/07/28 03:22:02;;;;;;;;;;;;;;;25.28;32.59;99594.16;6152451;23;20302;-65
2023/07/28 03:24:27;;;;;;;;;;;;;;;25.29;33.01;99597.72;6154659;23;19909;-66
2023/07/28 03:26:52;;;;;;;;;;;;;;;25.27;33.74;99603.53;6154733;23;20210;-66
2023/07/28 03:29:18;;;;;;;;;;;;;;;25.29;32.85;99601.28;6153021;23;19908;-66
2023/07/28 03:31:43;;;;;;;;;;;;;;;25.30;33.77;99602.91;6154560;23;19908;-65
2023/07/28 03:34:09;;;;;;;;;;;;;;;25.29;33.48;99600.47;6152126;23;20406;-65
2023/07/28 03:36:34;;;;;;;;;;;;;;;25.33;33.52;99600.66;6153895;23;19909;-65
2023/07/28 03:38:59;;;;;;;;;;;;;;;25.33;33.71;99606.97;6154103;23;19984;-66
2023/07/28 03:41:24;;;;;;;;;;;;;;;25.34;34.22;99602.28;6153008;23;19920;-65
2023/07/28 03:43:50;;;;;;;;;;;;;;;25.33;34.02;99597.91;6153407;23;19984;-65
2023/07/28 03:46:15;;;;;;;;;;;;;;;25.26;33.34;99604.66;6153609;23;20418;-65
2023/07/28 03:48:40;;;;;;;;;;;;;;;25.25;33.54;99600.28;6153045;23;19958;-65
2023/07/28 03:51:05;;;;;;;;;;;;;;;25.28;33.68;99605.16;6127648;23;19915;-65
2023/07/28 03:53:31;;;;;;;;;;;;;;;25.28;33.66;99605.16;6151972;23;19909;-65
2023/07/28 03:55:58;;;;;;;;;;;;;;;25.26;33.90;99607.41;6154405;23;19909;-65
2023/07/28 03:58:26;;;;;;;;;;;;;;;25.27;33.52;99611.78;6127903;23;19913;-65
2023/07/28 04:00:53;;;;;;;;;;;;;;;25.25;33.95;99608.53;6153538;23;19962;-65
2023/07/28 04:03:18;;;;;;;;;;;;;;;25.25;34.71;99610.47;6154162;23;19987;-66
2023/07/28 04:05:43;;;;;;;;;;;;;;;25.25;34.45;99607.72;6151347;23;20392;-66
2023/07/28 04:08:08;;;;;;;;;;;;;;;25.24;34.81;99617.91;6154267;23;19908;-66
2023/07/28 04:10:34;;;;;;;;;;;;;;;25.26;33.96;99621.16;6154115;23;19987;-66
2023/07/28 04:12:59;;;;;;;;;;;;;;;25.29;34.51;99625.22;6103683;23;20295;-66
2023/07/28 04:15:24;;;;;;;;;;;;;;;25.33;34.01;99626.19;6155757;23;19915;-66
2023/07/28 04:17:49;;;;;;;;;;;;;;;25.33;34.44;99628.16;6155059;23;20227;-65
2023/07/28 04:20:15;;;;;;;;;;;;;;;25.34;34.25;99630.59;6156475;23;19995;-66
2023/07/28 04:22:40;;;;;;;;;;;;;;;25.35;34.00;99634.13;6155680;23;19913;-66
2023/07/28 04:25:06;;;;;;;;;;;;;;;25.39;33.85;99635.13;6154442;23;19963;-66
2023/07/28 04:27:31;;;;;;;;;;;;;;;25.35;34.22;99642.38;6156343;23;20374;-66
2023/07/28 04:29:56;;;;;;;;;;;;;;;25.30;34.81;99640.59;6154739;23;19995;-66
2023/07/28 04:32:21;;;;;;;;;;;;;;;25.28;34.62;99643.66;6156073;23;19975;-66
2023/07/28 04:34:47;;;;;;;;;;;;;;;25.39;34.09;99640.63;6156228;23;19932;-66
2023/07/28 04:37:12;;;;;;;;;;;;;;;25.43;33.69;99645.19;6154058;23;19912;-66
2023/07/28 04:39:38;;;;;;;;;;;;;;;25.48;34.19;99641.50;6155905;23;20011;-66
2023/07/28 04:42:03;;;;;;;;;;;;;;;25.53;33.64;99641.38;6127404;23;19909;-65
2023/07/28 04:44:28;;;;;;;;;;;;;;;25.53;34.42;99646.88;6155919;23;19908;-65
2023/07/28 04:46:54;;;;;;;;;;;;;;;25.51;34.42;99646.38;6154560;23;19915;-65
2023/07/28 04:49:21;;;;;;;;;;;;;;;25.42;34.34;99646.31;6154669;23;20310;-65
2023/07/28 04:51:46;;;;;;;;;;;;;;;25.45;33.66;99639.41;6156127;23;19963;-65
2023/07/28 04:54:11;;;;;;;;;;;;;;;25.38;34.82;99647.25;6154374;23;20365;-65
2023/07/28 04:56:37;;;;;;;;;;;;;;;25.39;34.21;99640.63;6155141;23;20035;-66
2023/07/28 04:59:02;;;;;;;;;;;;;;;25.27;34.80;99639.25;6155996;23;19913;-66
2023/07/28 05:01:27;;;;;;;;;;;;;;;25.27;35.46;99646.69;6154077;23;19935;-66
2023/07/28 05:03:53;;;;;;;;;;;;;;;25.24;35.69;99633.56;6156222;23;20249;-66
2023/07/28 05:06:18;;;;;;;;;;;;;;;25.25;35.58;99643.44;6154354;23;19963;-66
2023/07/28 05:08:43;;;;;;;;;;;;;;;25.23;35.56;99641.00;6154859;23;19963;-66
2023/07/28 05:11:09;;;;;;;;;;;;;;;25.26;35.81;99648.66;6155871;23;19916;-66
2023/07/28 05:13:34;;;;;;;;;;;;;;;25.33;35.58;99644.63;6128037;23;19908;-66
2023/07/28 05:15:59;;;;;;;;;;;;;;;25.35;35.66;99648.69;6156166;23;19913;-66
2023/07/28 05:18:25;;;;;;;;;;;;;;;25.34;35.89;99649.03;6153883;23;20343;-66
2023/07/28 05:20:50;;;;;;;;;;;;;;;25.41;35.96;99652.16;6155557;23;19916;-66
2023/07/28 05:23:15;;;;;;;;;;;;;;;25.45;36.19;99653.13;6155528;23;20258;-66
2023/07/28 05:25:41;;;;;;;;;;;;;;;25.45;35.97;99655.88;6154017;23;19941;-66
2023/07/28 05:28:06;;;;;;;;;;;;;;;25.48;35.11;99652.50;6154958;23;19915;-65
2023/07/28 05:30:31;;;;;;;;;;;;;;;25.59;34.70;99664.06;6154673;23;20322;-66
2023/07/28 05:32:57;;;;;;;;;;;;;;;25.71;35.13;99661.56;6155115;23;19983;-65
2023/07/28 05:35:22;;;;;;;;;;;;;;;25.74;35.24;99662.84;6155084;23;20327;-66
2023/07/28 05:37:47;;;;;;;;;;;;;;;25.75;35.20;99662.53;6154324;23;19908;-66
2023/07/28 05:40:12;;;;;;;;;;;;;;;25.78;34.80;99658.34;6153753;23;19913;-66
2023/07/28 05:42:38;;;;;;;;;;;;;;;25.84;35.40;99668.09;6154526;23;19912;-66
2023/07/28 05:45:03;;;;;;;;;;;;;;;25.94;35.62;99673.34;6154965;23;20314;-66
2023/07/28 05:47:29;;;;;;;;;;;;;;;25.97;35.88;99671.91;6154541;23;20479;-66
2023/07/28 05:49:54;;;;;;;;;;;;;;;26.03;35.38;99676.94;6153071;23;19915;-66
2023/07/28 05:52:20;;;;;;;;;;;;;;;26.04;35.29;99680.53;6154987;23;19909;-66
2023/07/28 05:54:45;;;;;;;;;;;;;;;26.03;34.86;99676.94;6155198;23;19916;-66
2023/07/28 05:57:10;;;;;;;;;;;;;;;26.01;35.10;99679.22;6153999;23;19909;-66
2023/07/28 05:59:36;;;;;;;;;;;;;;;26.02;34.87;99678.09;6154688;23;20234;-67
2023/07/28 06:02:01;;;;;;;;;;;;;;;26.05;34.64;99679.38;6153765;23;19916;-67
2023/07/28 06:04:27;;;;;;;;;;;;;;;26.06;34.73;99676.31;6154707;23;20339;-67
2023/07/28 06:06:52;;;;;;;;;;;;;;;26.04;34.97;99675.84;6128884;23;20302;-68
2023/07/28 06:09:17;;;;;;;;;;;;;;;26.10;35.40;99678.47;6152996;23;20027;-67
2023/07/28 06:11:43;;;;;;;;;;;;;;;26.14;35.39;99682.19;6154488;23;19912;-67
2023/07/28 06:14:08;;;;;;;;;;;;;;;26.16;35.34;99683.47;6127400;23;19913;-68
2023/07/28 06:16:33;;;;;;;;;;;;;;;26.19;35.37;99673.81;6129276;23;19993;-65
2023/07/28 06:18:58;;;;;;;;;;;;;;;26.19;35.29;99682.06;6154831;23;19915;-66
2023/07/28 06:21:24;;;;;;;;;;;;;;;26.21;35.00;99683.34;6152620;23;20318;-66
2023/07/28 06:23:49;;;;;;;;;;;;;;;26.26;35.34;99685.13;6154788;23;20315;-66
2023/07/28 06:26:15;;;;;;;;;;;;;;;26.38;34.38;99692.81;6153400;23;19909;-66
2023/07/28 06:28:40;;;;;;;;;;;;;;;26.42;34.14;99686.34;6155277;23;19967;-66
2023/07/28 06:31:06;;;;;;;;;;;;;;;26.45;34.38;99702.22;6128023;23;20295;-66
2023/07/28 06:33:32;;;;;;;;;;;;;;;26.55;34.69;99689.31;6153872;23;20037;-66
2023/07/28 06:35:57;;;;;;;;;;;;;;;26.63;34.40;99694.03;6154491;23;20356;-66
2023/07/28 06:38:22;;;;;;;;;;;;;;;26.76;34.46;99690.34;6153486;23;19917;-66
2023/07/28 06:40:49;;;;;;;;;;;;;;;26.91;34.18;99682.75;6154965;23;19940;-66
2023/07/28 06:43:14;;;;;;;;;;;;;;;26.90;34.79;99690.22;6154168;23;19916;-66
2023/07/28 06:45:39;;;;;;;;;;;;;;;26.93;34.44;99685.97;6154036;23;19958;-65
2023/07/28 06:48:06;;;;;;;;;;;;;;;26.91;34.16;99688.25;6154405;23;20299;-66
2023/07/28 06:50:32;;;;;;;;;;;;;;;26.87;34.61;99688.09;6153932;23;19919;-66
2023/07/28 06:52:57;;;;;;;;;;;;;;;26.86;33.87;99689.25;6154528;23;19909;-66
2023/07/28 06:55:23;;;;;;;;;;;;;;;26.89;34.35;99688.56;6128999;23;19927;-66
2023/07/28 06:57:49;;;;;;;;;;;;;;;26.94;34.10;99693.94;6153694;23;19909;-66
2023/07/28 07:00:14;;;;;;;;;;;;;;;26.97;34.25;99695.25;6154786;23;19912;-66
2023/07/28 07:02:40;;;;;;;;;;;;;;;26.97;34.59;99695.25;6152691;23;20307;-67
2023/07/28 07:05:06;;;;;;;;;;;;;;;26.94;34.28;99695.88;6154916;23;19991;-67
2023/07/28 07:07:32;;;;;;;;;;;;;;;26.97;35.10;99687.78;6155160;23;20337;-67
2023/07/28 07:09:57;;;;;;;;;;;;;;;27.04;34.83;99692.81;6152796;23;19908;-68
2023/07/28 07:12:22;;;;;;;;;;;;;;;27.16;34.00;99692.19;6154833;23;20369;-66
2023/07/28 07:14:48;;;;;;;;;;;;;;;27.14;33.49;99694.44;6152951;23;19912;-67
2023/07/28 07:17:13;;;;;;;;;;;;;;;27.16;33.71;99692.97;6128340;23;20234;-67
2023/07/28 07:19:39;;;;;;;;;;;;;;;27.11;33.57;99704.16;6128376;23;19919;-66
2023/07/28 07:22:04;;;;;;;;;;;;;;;27.26;34.94;99704.84;6153186;23;19937;-67
2023/07/28 07:24:29;;;;;;;;;;;;;;;27.44;33.45;99703.72;6154279;23;19916;-66
2023/07/28 07:26:55;;;;;;;;;;;;;;;27.37;32.98;99706.16;6153903;23;19912;-66
2023/07/28 07:29:20;;;;;;;;;;;;;;;27.39;33.03;99703.88;6154369;23;19915;-65
2023/07/28 07:31:46;;;;;;;;;;;;;;;27.40;32.55;99703.56;6154725;23;19909;-65
2023/07/28 07:34:11;;;;;;;;;;;;;;;27.49;32.88;99702.72;6152424;23;19920;-66
2023/07/28 07:36:36;;;;;;;;;;;;;;;27.49;32.49;99706.31;6154808;23;20289;-66
2023/07/28 07:39:02;;;;;;;;;;;;;;;27.51;32.57;99717.81;6153698;23;19908;-65
2023/07/28 07:41:29;;;;;;;;;;;;;;;27.48;32.72;99712.94;6153236;23;20218;-67
2023/07/28 07:43:54;;;;;;;;;;;;;;;27.52;33.08;99716.66;6154133;23;19912;-66
2023/07/28 07:46:20;;;;;;;;;;;;;;;27.23;33.18;99720.88;6151490;23;19915;-66
2023/07/28 07:48:45;;;;;;;;;;;;;;;27.17;33.25;99713.09;6154695;23;19961;-65
2023/07/28 07:51:10;;;;;;;;;;;;;;;27.13;33.24;99715.69;6154548;23;19912;-65
2023/07/28 07:53:36;;;;;;;;;;;;;;;27.04;32.98;99721.19;6153427;23;19932;-65
2023/07/28 07:56:05;;;;;;;;;;;;;;;27.16;33.36;99715.03;6153847;23;20028;-65
2023/07/28 07:58:30;;;;;;;;;;;;;;;27.11;33.23;99714.38;6152828;23;20361;-65
2023/07/28 08:00:56;;;;;;;;;;;;;;;27.17;33.03;99719.44;6154406;23;19912;-65
2023/07/28 08:03:21;;;;;;;;;;;;;;;27.13;32.73;99726.69;6153967;23;19917;-65
2023/07/28 08:05:46;;;;;;;;;;;;;;;27.14;32.66;99724.78;6152354;23;19967;-65
2023/07/28 08:08:12;;;;;;;;;;;;;;;27.27;32.90;99734.06;6154457;23;19908;-67
2023/07/28 08:10:38;;;;;;;;;;;;;;;27.26;32.48;99722.19;6150693;23;19920;-63
2023/07/28 08:13:04;;;;;;;;;;;;;;;27.53;32.56;99731.31;6151754;23;19928;-61
2023/07/28 08:15:29;;;;;;;;;;;;;;;27.44;32.73;99734.06;6151735;23;19955;-61
2023/07/28 08:17:55;;;;;;;;;;;;;;;27.03;33.21;99735.28;6150250;23;19935;-61
2023/07/28 08:20:20;;;;;;;;;;;;;;;26.88;32.70;99733.00;6153114;23;19940;-61
2023/07/28 08:22:45;;;;;;;;;;;;;;;26.95;32.46;99736.06;6151204;23;19908;-61
2023/07/28 08:25:10;;;;;;;;;;;;;;;27.02;32.48;99728.16;6153283;23;19908;-61
2023/07/28 08:27:36;;;;;;;;;;;;;;;27.00;32.47;99744.19;6152385;23;20222;-61
2023/07/28 08:30:02;;;;;;;;;;;;;;;26.86;32.24;99749.84;6152456;23;19983;-61
2023/07/28 08:32:27;;;;;;;;;;;;;;;26.78;32.64;99740.44;6154247;23;19979;-61
2023/07/28 08:34:53;;;;;;;;;;;;;;;26.81;32.71;99738.97;6152466;23;20269;-61
2023/07/28 08:37:18;;;;;;;;;;;;;;;27.01;32.81;99746.63;6153510;23;19908;-61
2023/07/28 08:39:43;;;;;;;;;;;;;;;27.09;32.55;99746.97;6153109;23;20011;-60
2023/07/28 08:42:09;;;;;;;;;;;;;;;26.95;32.85;99747.09;6152625;23;20237;-60
2023/07/28 08:44:34;;;;;;;;;;;;;;;27.03;32.84;99735.28;6154162;23;20006;-61
2023/07/28 08:47:00;;;;;;;;;;;;;;;27.08;33.25;99737.91;6151697;23;19954;-60
2023/07/28 08:49:26;;;;;;;;;;;;;;;27.19;33.80;99738.38;6153110;23;19963;-60
2023/07/28 08:51:52;;;;;;;;;;;;;;;27.19;33.68;99741.97;6153447;23;19987;-61
2023/07/28 08:54:17;;;;;;;;;;;;;;;27.16;33.70;99739.84;6152026;23;19962;-61
2023/07/28 08:56:43;;;;;;;;;;;;;;;27.06;33.75;99734.66;6153610;23;19913;-61
2023/07/28 08:59:08;;;;;;;;;;;;;;;27.04;33.76;99729.47;6152338;23;19965;-60
2023/07/28 09:01:38;;;;;;;;;;;;;;;26.99;34.19;99729.63;6155377;23;20267;-60
2023/07/28 09:04:09;;;;;;;;;;;;;;;27.14;33.78;99733.84;6155507;23;19913;-60
2023/07/28 09:06:34;;;;;;;;;;;;;;;27.07;34.14;99741.78;6128247;23;20327;-60
2023/07/28 09:09:00;;;;;;;;;;;;;;;27.10;34.61;99740.31;6155291;23;19908;-61
2023/07/28 09:11:29;;;;;;;;;;;;;;;27.21;34.23;99736.94;6154210;23;20026;-61
2023/07/28 09:13:55;;;;;;;;;;;;;;;27.05;33.97;99744.06;6155674;23;19925;-61
2023/07/28 09:16:21;;;;;;;;;;;;;;;27.08;34.13;99739.81;6155748;23;19924;-61
2023/07/28 09:18:47;;;;;;;;;;;;;;;27.12;34.31;99727.84;6154050;23;19909;-61
2023/07/28 09:21:21;;;;;;;;;;;;;;;27.24;33.91;99729.97;6155325;23;19959;-61
2023/07/28 09:23:47;;;;;;;;;;;;;;;27.43;33.88;99724.16;6154105;23;19913;-61
2023/07/28 09:26:13;;;;;;;;;;;;;;;27.47;33.73;99730.66;6155530;23;19915;-61
2023/07/28 09:28:39;;;;;;;;;;;;;;;27.51;33.61;99726.09;6155386;23;20015;-62
2023/07/28 09:31:05;;;;;;;;;;;;;;;27.46;33.62;99729.03;6153819;23;20069;-61
2023/07/28 09:33:31;;;;;;;;;;;;;;;27.58;33.72;99736.63;6155451;23;19981;-61
2023/07/28 09:35:57;;;;;;;;;;;;;;;27.51;33.29;99731.63;6153877;23;19912;-61
2023/07/28 09:38:24;;;;;;;;;;;;;;;27.57;33.45;99727.56;6155395;23;19912;-62
2023/07/28 09:40:49;;;;;;;;;;;;;;;27.53;33.37;99732.09;6154881;23;19991;-61
2023/07/28 09:43:14;;;;;;;;;;;;;;;27.60;33.56;99728.88;6153986;23;19964;-61
2023/07/28 09:45:40;;;;;;;;;;;;;;;27.40;33.61;99719.28;6155219;23;20267;-61
2023/07/28 09:48:07;;;;;;;;;;;;;;;27.66;33.85;99726.75;6152682;23;19999;-61
2023/07/28 09:50:33;;;;;;;;;;;;;;;27.69;33.33;99726.06;6154616;23;20246;-61
2023/07/28 09:53:01;;;;;;;;;;;;;;;27.76;33.30;99723.63;6154843;23;19909;-61
2023/07/28 09:55:28;;;;;;;;;;;;;;;27.73;33.15;99721.50;6153153;23;20287;-62
2023/07/28 09:57:54;;;;;;;;;;;;;;;27.68;33.34;99717.00;6154510;23;20294;-61
2023/07/28 10:00:21;;;;;;;;;;;;;;;27.83;33.66;99712.91;6153400;23;19915;-61
2023/07/28 10:02:46;;;;;;;;;;;;;;;27.72;33.46;99719.91;6153987;23;19916;-60
2023/07/28 10:05:12;;;;;;;;;;;;;;;27.90;33.26;99715.22;6155062;23;20330;-62
2023/07/28 10:07:42;;;;;;;;;;;;;;;27.83;33.33;99712.91;6153771;23;19912;-61
2023/07/28 10:10:10;;;;;;;;;;;;;;;27.89;33.47;99699.75;6153721;23;19932;-61
2023/07/28 10:12:45;;;;;;;;;;;;;;;28.00;33.13;99706.56;6152706;23;19916;-61
2023/07/28 10:15:18;;;;;;;;;;;;;;;28.22;32.75;99704.72;6155105;23;19995;-61
2023/07/28 10:17:44;;;;;;;;;;;;;;;28.24;32.58;99711.50;6155215;23;19940;-61
2023/07/28 10:20:49;;;;;;;;;;;;;;;28.29;32.90;99705.81;6153338;23;20380;-61
2023/07/28 10:23:19;;;;;;;;;;;;;;;28.44;32.84;99698.13;6035128;23;19945;-60
2023/07/28 10:25:45;;;;;;;;;;;;;;;28.81;33.00;99702.00;6136027;23;19975;-60
2023/07/28 10:28:43;;;;;;;;;;;;;;;28.98;33.28;99694.75;6155326;23;20344;-61
2023/07/28 10:31:10;;;;;;;;;;;;;;;29.08;32.54;99694.31;6088679;23;19916;-61
2023/07/28 10:33:37;;;;;;;;;;;;;;;29.51;31.82;99696.75;6154651;23;19979;-61
2023/07/28 10:36:18;;;;;;;;;;;;;;;29.78;29.48;99699.28;6155312;23;19908;-61
2023/07/28 10:38:43;;;;;;;;;;;;;;;29.97;30.59;99696.78;6153709;23;19959;-62
2023/07/28 10:41:13;;;;;;;;;;;;;;;29.81;29.29;99690.28;6155121;23;19912;-61
2023/07/28 10:43:39;;;;;;;;;;;;;;;29.86;28.45;99693.66;6152829;23;19912;-61
2023/07/28 10:46:06;;;;;;;;;;;;;;;29.74;28.24;99685.31;6154818;23;19935;-60
2023/07/28 10:48:31;;;;;;;;;;;;;;;29.65;29.61;99693.69;6153961;23;19909;-61
2023/07/28 10:50:56;;;;;;;;;;;;;;;29.45;29.63;99692.56;6153750;23;19908;-61
2023/07/28 10:53:22;;;;;;;;;;;;;;;29.59;29.98;99700.59;6154341;23;19958;-61
2023/07/28 10:55:47;;;;;;;;;;;;;;;29.44;30.13;99693.72;6153156;23;19913;-61
2023/07/28 10:58:12;;;;;;;;;;;;;;;29.55;29.92;99694.13;6154554;23;19943;-60
2023/07/28 11:00:38;;;;;;;;;;;;;;;29.86;30.22;99695.63;6154963;23;20311;-61
2023/07/28 11:03:03;;;;;;;;;;;;;;;29.90;30.11;99699.31;6153152;23;19925;-61
2023/07/28 11:05:29;;;;;;;;;;;;;;;29.96;30.12;99691.59;6154173;23;20242;-61
2023/07/28 11:07:56;;;;;;;;;;;;;;;30.31;30.99;99691.97;6126843;23;19968;-61
2023/07/28 11:10:21;;;;;;;;;;;;;;;30.58;29.00;99700.78;6154789;23;20003;-61
2023/07/28 11:12:48;;;;;;;;;;;;;;;30.80;31.40;99683.66;6154954;23;19940;-61
2023/07/28 11:15:14;;;;;;;;;;;;;;;31.04;29.65;99679.25;6152884;23;19916;-61
2023/07/28 11:17:40;;;;;;;;;;;;;;;31.26;29.22;99678.72;6154895;23;19931;-61
2023/07/28 11:20:26;;;;;;;;;;;;;;;31.18;28.24;99689.97;6153347;23;20327;-62
2023/07/28 11:22:56;;;;;;;;;;;;;;;31.22;27.93;99688.91;6154002;23;19909;-61
2023/07/28 11:25:22;;;;;;;;;;;;;;;31.35;28.23;99680.53;6127985;23;20223;-62
2023/07/28 11:27:48;;;;;;;;;;;;;;;31.55;27.73;99695.41;6153512;23;19909;-61
2023/07/28 11:30:14;;;;;;;;;;;;;;;31.78;28.59;99676.19;6152208;23;20014;-62
2023/07/28 11:32:42;;;;;;;;;;;;;;;32.13;27.93;99679.13;6153246;23;19964;-62
2023/07/28 11:35:14;;;;;;;;;;;;;;;32.36;27.82;99672.91;6154044;23;19909;-62
2023/07/28 11:37:41;;;;;;;;;;;;;;;32.51;26.82;99676.84;6154549;23;19912;-62
2023/07/28 11:40:07;;;;;;;;;;;;;;;32.75;26.15;99682.19;6152911;23;19913;-62
2023/07/28 11:42:39;;;;;;;;;;;;;;;33.20;28.09;99682.78;6154327;23;19908;-62
2023/07/28 11:45:05;;;;;;;;;;;;;;;33.51;25.36;99689.38;6153200;23;19947;-62
2023/07/28 11:47:31;;;;;;;;;;;;;;;33.53;24.53;99681.44;6153081;23;19909;-63
2023/07/28 11:49:58;;;;;;;;;;;;;;;33.72;25.65;99675.06;6154150;23;19909;-62
2023/07/28 11:52:24;;;;;;;;;;;;;;;34.21;25.29;99676.31;6153087;23;19913;-63
2023/07/28 11:54:51;;;;;;;;;;;;;;;34.46;23.38;99676.75;6154513;23;19909;-63
2023/07/28 11:57:16;;;;;;;;;;;;;;;34.65;22.11;99684.19;6152233;23;19948;-63
2023/07/28 11:59:41;;;;;;;;;;;;;;;34.85;22.90;99668.97;6154359;23;19909;-63
2023/07/28 12:02:07;;;;;;;;;;;;;;;34.72;22.16;99686.31;6153853;23;19955;-62
2023/07/28 12:04:38;;;;;;;;;;;;;;;34.79;23.11;99676.06;6153122;23;19909;-62
2023/07/28 12:07:06;;;;;;;;;;;;;;;34.69;21.82;99701.81;6153732;23;19919;-62
2023/07/28 12:09:59;;;;;;;;;;;;;;;34.41;22.44;99691.78;6153309;23;19987;-61
2023/07/28 12:12:31;;;;;;;;;;;;;;;34.24;23.47;99689.53;6154303;23;20246;-61
2023/07/28 12:15:04;;;;;;;;;;;;;;;34.47;23.91;99692.28;6153056;23;19909;-61
2023/07/28 12:17:29;;;;;;;;;;;;;;;34.65;23.39;99695.34;6127744;23;19912;-61
2023/07/28 12:20:10;;;;;;;;;;;;;;;34.63;23.67;99709.66;6153904;23;19912;-61
2023/07/28 12:22:35;;;;;;;;;;;;;;;34.57;23.41;99697.22;6152499;23;19993;-62
2023/07/28 12:25:00;;;;;;;;;;;;;;;34.67;22.47;99690.19;6154669;23;19916;-62
2023/07/28 12:27:26;;;;;;;;;;;;;;;34.94;22.89;99701.34;6152272;23;19988;-62
2023/07/28 12:29:52;;;;;;;;;;;;;;;35.34;25.39;99694.31;6153160;23;19915;-62
2023/07/28 12:32:17;;;;;;;;;;;;;;;35.56;23.91;99706.53;6154029;23;19913;-65
2023/07/28 12:34:43;;;;;;;;;;;;;;;35.76;22.92;99694.00;6154254;23;19912;-62
2023/07/28 12:37:08;;;;;;;;;;;;;;;35.82;22.83;99691.69;6156355;23;19938;-61
2023/07/28 12:39:38;;;;;;;;;;;;;;;35.98;23.01;99692.22;6154288;23;20349;-64
2023/07/28 12:42:04;;;;;;;;;;;;;;;36.12;23.07;99685.94;6156475;23;20496;-62
2023/07/28 12:44:31;;;;;;;;;;;;;;;36.70;23.61;99695.66;6130089;23;19916;-62